Time;durP1;ratioP1;P1;durP2;ratioP2;P2;SDS_P1;SDS_P2;PMS_P1;PMS_P2;Temp;Humidity;BMP_temperature;BMP_pressure;BME280_temperature;BME280_humidity;BME280_pressure;Samples;Min_cycle;Max_cycle;Signal;HPM_P1;HPM_P2
2023/09/08 00:00:40;;;;;;;12.85;8.30;;;;;;;30.35;42.31;101725.56;5073251;28;20020;-70
2023/09/08 00:03:06;;;;;;;11.70;7.78;;;;;;;30.03;42.28;101720.91;5064569;28;20452;-70
2023/09/08 00:05:31;;;;;;;14.82;8.73;;;;;;;30.19;42.19;101717.88;5084064;28;20034;-70
2023/09/08 00:07:57;;;;;;;14.05;9.32;;;;;;;30.06;42.52;101718.84;5093048;28;20028;-69
2023/09/08 00:10:22;;;;;;;11.63;7.60;;;;;;;30.14;42.13;101729.00;5073526;28;20031;-69
2023/09/08 00:12:48;;;;;;;14.32;8.45;;;;;;;30.07;42.55;101722.38;5090594;28;20038;-70
2023/09/08 00:15:13;;;;;;;15.18;8.50;;;;;;;29.99;42.24;101727.53;5066653;28;20388;-69
2023/09/08 00:17:39;;;;;;;15.60;8.55;;;;;;;29.80;42.39;101726.25;5054186;28;20395;-71
2023/09/08 00:20:09;;;;;;;13.30;8.70;;;;;;;30.17;41.99;101736.84;5063540;28;20128;-70
2023/09/08 00:22:38;;;;;;;14.73;8.98;;;;;;;30.12;41.96;101734.50;5072090;28;20087;-70
2023/09/08 00:25:04;;;;;;;14.95;9.38;;;;;;;29.69;43.36;101735.16;5074093;28;20032;-72
2023/09/08 00:27:31;;;;;;;15.00;8.68;;;;;;;30.04;42.49;101738.81;5074203;28;20407;-71
2023/09/08 00:29:56;;;;;;;14.35;8.57;;;;;;;30.09;42.58;101739.31;5073591;28;20438;-72
2023/09/08 00:32:21;;;;;;;13.95;8.23;;;;;;;30.14;42.66;101744.31;5090961;28;20081;-71
2023/09/08 00:34:47;;;;;;;11.90;8.43;;;;;;;30.16;41.97;101742.34;5073710;28;20090;-71
2023/09/08 00:37:12;;;;;;;14.02;8.40;;;;;;;30.15;42.12;101746.03;5072244;28;20031;-72
2023/09/08 00:39:38;;;;;;;15.63;8.57;;;;;;;30.09;42.51;101747.38;5053915;28;20082;-70
2023/09/08 00:42:04;;;;;;;13.90;8.93;;;;;;;29.98;42.24;101739.28;5080375;28;20032;-71
2023/09/08 00:44:29;;;;;;;12.73;8.38;;;;;;;30.11;43.13;101738.19;5072057;28;20042;-71
2023/09/08 00:46:55;;;;;;;14.25;8.85;;;;;;;29.90;43.21;101742.59;5092025;28;20107;-71
2023/09/08 00:49:21;;;;;;;19.85;9.15;;;;;;;30.08;42.42;101734.88;5071553;28;20025;-72
2023/09/08 00:51:46;;;;;;;13.32;8.77;;;;;;;29.89;42.87;101736.31;5069992;28;20401;-71
2023/09/08 00:54:12;;;;;;;13.07;9.13;;;;;;;29.84;43.11;101738.50;5067422;28;20024;-70
2023/09/08 00:56:38;;;;;;;12.57;8.80;;;;;;;29.80;42.83;101742.41;5072112;28;20054;-71
2023/09/08 00:59:05;;;;;;;13.63;9.05;;;;;;;29.70;43.05;101741.41;5075600;28;20098;-69
2023/09/08 01:01:31;;;;;;;14.50;9.30;;;;;;;29.80;43.06;101737.03;5038228;28;20621;-71
2023/09/08 01:03:56;;;;;;;14.70;8.85;;;;;;;30.08;42.68;101740.28;5033832;28;20029;-71
2023/09/08 01:06:23;;;;;;;12.13;8.20;;;;;;;29.86;42.52;101733.88;5036453;28;20025;-71
2023/09/08 01:08:50;;;;;;;15.27;8.75;;;;;;;29.51;43.53;101726.66;5072136;28;20031;-71
2023/09/08 01:11:17;;;;;;;14.20;8.52;;;;;;;29.80;42.90;101728.94;5066017;28;20020;-72
2023/09/08 01:13:43;;;;;;;13.07;8.15;;;;;;;29.85;43.00;101728.59;5037249;28;20083;-71
2023/09/08 01:16:08;;;;;;;13.85;8.70;;;;;;;29.81;42.97;101727.94;5033547;28;20632;-71
2023/09/08 01:18:34;;;;;;;14.15;8.50;;;;;;;29.84;42.93;101727.72;5033582;28;20027;-71
2023/09/08 01:21:22;;;;;;;17.10;9.45;;;;;;;29.67;43.02;101734.41;5033188;28;20036;-71
2023/09/08 01:24:05;;;;;;;13.82;8.93;;;;;;;29.64;42.96;101733.81;5049834;28;20036;-71
2023/09/08 01:26:40;;;;;;;14.13;9.60;;;;;;;29.58;43.72;101733.28;5033086;28;20061;-71
2023/09/08 01:29:06;;;;;;;14.10;8.73;;;;;;;29.75;43.01;101729.28;5051536;28;20025;-72
2023/09/08 01:31:32;;;;;;;14.23;8.77;;;;;;;29.53;43.26;101730.09;5058236;28;20028;-71
2023/09/08 01:33:59;;;;;;;14.32;9.35;;;;;;;29.81;42.66;101727.94;5053813;28;20107;-71
2023/09/08 01:36:25;;;;;;;15.20;8.18;;;;;;;29.51;43.59;101729.38;5070961;28;20052;-71
2023/09/08 01:38:50;;;;;;;16.05;9.05;;;;;;;29.32;43.87;101727.22;5071212;28;20075;-71
2023/09/08 01:41:15;;;;;;;12.77;8.82;;;;;;;29.52;43.13;101736.44;5044370;28;20021;-72
2023/09/08 01:43:41;;;;;;;13.70;9.52;;;;;;;29.50;43.42;101741.09;5033464;28;20029;-71
2023/09/08 01:46:06;;;;;;;16.50;9.32;;;;;;;29.53;43.29;101735.47;5067989;28;20451;-72
2023/09/08 01:48:32;;;;;;;14.32;8.80;;;;;;;29.38;43.43;101728.56;5034293;28;20408;-71
2023/09/08 01:50:57;;;;;;;14.05;8.70;;;;;;;29.36;43.78;101727.81;5032327;28;20033;-72
2023/09/08 01:53:22;;;;;;;12.85;8.07;;;;;;;29.27;43.90;101727.53;5032965;28;20025;-71
2023/09/08 01:55:48;;;;;;;14.98;9.15;;;;;;;29.13;44.37;101732.22;5035575;28;20040;-71
2023/09/08 01:58:13;;;;;;;15.10;8.57;;;;;;;29.22;44.41;101721.63;5054545;28;20050;-72
2023/09/08 02:00:38;;;;;;;14.18;9.00;;;;;;;29.23;44.00;101728.72;5071181;28;20480;-71
2023/09/08 02:03:04;;;;;;;14.63;9.60;;;;;;;29.11;44.43;101729.63;5072189;28;20467;-71
2023/09/08 02:05:30;;;;;;;13.55;8.70;;;;;;;29.19;43.92;101721.84;5059963;28;20247;-70
2023/09/08 02:07:56;;;;;;;14.40;8.15;;;;;;;29.33;44.04;101722.69;5052712;28;20174;-71
2023/09/08 02:10:21;;;;;;;11.60;8.07;;;;;;;29.15;44.02;101725.75;5062711;28;20081;-72
2023/09/08 02:12:47;;;;;;;13.38;8.93;;;;;;;29.25;44.17;101726.81;5052285;28;20028;-71
2023/09/08 02:15:12;;;;;;;13.20;8.60;;;;;;;29.24;43.88;101719.72;5078548;28;20032;-71
2023/09/08 02:17:38;;;;;;;16.55;9.30;;;;;;;29.41;43.67;101725.66;5090202;28;20028;-71
2023/09/08 02:20:04;;;;;;;13.63;8.98;;;;;;;29.17;44.30;101725.63;5072634;28;20024;-72
2023/09/08 02:22:29;;;;;;;14.88;9.35;;;;;;;29.04;44.64;101723.00;5070812;28;20028;-71
2023/09/08 02:24:56;;;;;;;14.98;8.38;;;;;;;29.22;44.02;101715.38;5059219;28;20469;-71
2023/09/08 02:27:22;;;;;;;15.00;9.38;;;;;;;28.88;44.38;101721.47;5072218;28;20059;-72
2023/09/08 02:29:47;;;;;;;15.57;9.48;;;;;;;28.90;43.81;101722.19;5072627;28;20062;-71
2023/09/08 02:32:14;;;;;;;14.18;8.60;;;;;;;28.94;44.14;101718.31;5087716;28;20035;-71
2023/09/08 02:34:41;;;;;;;18.80;10.00;;;;;;;28.91;44.36;101718.53;5090410;28;20028;-71
2023/09/08 02:37:06;;;;;;;14.70;8.88;;;;;;;28.97;44.55;101721.75;5090641;28;20495;-71
2023/09/08 02:39:32;;;;;;;16.88;9.38;;;;;;;28.72;44.53;101723.56;5063091;28;20032;-72
2023/09/08 02:41:58;;;;;;;13.27;7.63;;;;;;;29.00;43.91;101721.50;5078630;28;20036;-72
2023/09/08 02:44:23;;;;;;;13.30;8.93;;;;;;;29.21;44.05;101725.31;5069317;28;20481;-71
2023/09/08 02:46:49;;;;;;;16.98;10.38;;;;;;;28.82;43.90;101719.22;5070114;28;20377;-71
2023/09/08 02:49:14;;;;;;;16.15;8.88;;;;;;;28.67;44.92;101723.03;5053746;28;20024;-71
2023/09/08 02:51:39;;;;;;;14.85;8.10;;;;;;;29.09;43.94;101727.06;5075980;28;20456;-71
2023/09/08 02:54:05;;;;;;;19.50;9.57;;;;;;;28.88;44.61;101717.91;5079900;28;20482;-71
2023/09/08 02:56:30;;;;;;;14.52;8.68;;;;;;;28.81;44.76;101717.53;5051621;28;20033;-71
2023/09/08 02:58:56;;;;;;;13.98;8.68;;;;;;;28.90;44.66;101711.44;5071813;28;20059;-70
2023/09/08 03:01:22;;;;;;;11.77;8.48;;;;;;;28.82;44.95;101713.00;5050223;28;20025;-69
2023/09/08 03:03:48;;;;;;;15.13;8.15;;;;;;;28.84;44.04;101711.91;5052131;28;20482;-69
2023/09/08 03:06:15;;;;;;;15.57;9.05;;;;;;;28.84;43.99;101713.72;5049634;28;20016;-69
2023/09/08 03:08:40;;;;;;;16.15;8.10;;;;;;;29.01;43.89;101715.16;5042716;28;20147;-71
2023/09/08 03:11:05;;;;;;;13.98;8.80;;;;;;;28.80;44.22;101709.53;5051156;28;20123;-72
2023/09/08 03:13:33;;;;;;;17.70;9.45;;;;;;;28.73;43.66;101709.16;5049001;28;20277;-71
2023/09/08 03:16:02;;;;;;;13.73;8.07;;;;;;;28.66;43.92;101706.06;5052230;28;20021;-71
2023/09/08 03:18:28;;;;;;;14.50;8.70;;;;;;;28.43;45.20;101707.69;5045341;28;20029;-72
2023/09/08 03:20:53;;;;;;;15.25;9.40;;;;;;;28.49;44.90;101703.69;5054465;28;20024;-72
2023/09/08 03:23:18;;;;;;;14.75;9.65;;;;;;;28.57;44.37;101710.22;5054940;28;20059;-70
2023/09/08 03:25:44;;;;;;;16.60;9.75;;;;;;;28.58;44.05;101706.56;5056307;28;20020;-71
2023/09/08 03:28:09;;;;;;;16.70;10.02;;;;;;;28.44;44.70;101701.34;5047039;28;20032;-71
2023/09/08 03:30:35;;;;;;;16.63;9.80;;;;;;;27.73;46.27;101709.00;5053918;28;20021;-70
2023/09/08 03:33:00;;;;;;;18.40;9.38;;;;;;;28.30;45.18;101706.84;5050881;28;20052;-71
2023/09/08 03:35:26;;;;;;;15.88;9.70;;;;;;;28.15;45.43;101701.63;5034510;28;20476;-71
2023/09/08 03:37:51;;;;;;;17.67;9.25;;;;;;;27.57;46.29;101693.06;5041378;28;20040;-71
2023/09/08 03:40:16;;;;;;;16.33;9.63;;;;;;;28.18;45.22;101696.00;5035329;28;20024;-71
2023/09/08 03:42:42;;;;;;;17.17;9.95;;;;;;;27.82;46.55;101694.94;5051987;28;20029;-71
2023/09/08 03:45:08;;;;;;;17.60;8.93;;;;;;;28.09;45.59;101694.81;5035424;28;20120;-71
2023/09/08 03:47:33;;;;;;;16.10;9.85;;;;;;;27.85;45.70;101694.72;5053067;28;20481;-71
2023/09/08 03:49:59;;;;;;;14.45;9.18;;;;;;;28.29;45.52;101694.38;5054840;28;20020;-71
2023/09/08 03:52:25;;;;;;;16.15;9.52;;;;;;;28.10;45.61;101690.31;5054577;28;20043;-72
2023/09/08 03:54:50;;;;;;;16.45;10.07;;;;;;;28.52;44.65;101690.91;5054694;28;20039;-71
2023/09/08 03:57:15;;;;;;;13.82;9.15;;;;;;;28.40;44.88;101692.63;5073027;28;20048;-71
2023/09/08 03:59:41;;;;;;;14.43;9.30;;;;;;;28.18;45.32;101687.97;5053714;28;20075;-71
2023/09/08 04:02:06;;;;;;;17.90;10.27;;;;;;;28.26;44.85;101695.44;5062210;28;20033;-70
2023/09/08 04:04:32;;;;;;;14.50;9.60;;;;;;;28.39;44.83;101690.06;5053385;28;20051;-71
2023/09/08 04:06:57;;;;;;;13.95;8.93;;;;;;;28.50;44.67;101691.97;5055429;28;20025;-71
2023/09/08 04:09:22;;;;;;;15.02;9.60;;;;;;;28.23;45.10;101688.50;5070307;28;20400;-72
2023/09/08 04:11:48;;;;;;;14.45;9.15;;;;;;;28.15;45.25;101693.56;5059697;28;20051;-71
2023/09/08 04:14:13;;;;;;;15.32;9.40;;;;;;;28.08;45.54;101697.63;5052835;28;20032;-72
2023/09/08 04:16:39;;;;;;;15.10;9.23;;;;;;;27.99;45.85;101692.91;5033931;28;20170;-72
2023/09/08 04:19:04;;;;;;;15.23;9.68;;;;;;;28.27;44.93;101686.41;5046927;28;20033;-72
2023/09/08 04:21:29;;;;;;;12.68;8.23;;;;;;;28.22;45.27;101686.75;5053139;28;20058;-71
2023/09/08 04:23:55;;;;;;;14.95;9.60;;;;;;;28.16;45.20;101684.50;5053594;28;20032;-71
2023/09/08 04:26:20;;;;;;;14.77;8.95;;;;;;;28.11;45.51;101694.75;5052722;28;20108;-71
2023/09/08 04:28:46;;;;;;;15.15;9.13;;;;;;;28.03;45.30;101694.44;5053686;28;20115;-72
2023/09/08 04:31:11;;;;;;;15.07;9.07;;;;;;;28.07;45.64;101690.56;5044982;28;20484;-72
2023/09/08 04:33:37;;;;;;;13.27;8.90;;;;;;;28.25;45.24;101701.81;5043928;28;20024;-71
2023/09/08 04:36:02;;;;;;;15.00;8.88;;;;;;;27.95;45.72;101697.59;5055572;28;20396;-70
2023/09/08 04:38:27;;;;;;;13.20;8.57;;;;;;;27.99;45.97;101692.91;5033787;28;20029;-71
2023/09/08 04:40:53;;;;;;;13.25;8.25;;;;;;;28.16;44.97;101689.88;5037266;28;20034;-71
2023/09/08 04:43:18;;;;;;;16.02;9.20;;;;;;;27.93;45.24;101691.47;5053699;28;20012;-71
2023/09/08 04:45:44;;;;;;;18.00;9.45;;;;;;;28.19;45.32;101699.56;5054101;28;20115;-72
2023/09/08 04:48:09;;;;;;;15.75;9.82;;;;;;;28.24;45.01;101698.25;5061777;28;20033;-73
2023/09/08 04:50:34;;;;;;;15.40;9.43;;;;;;;27.81;45.54;101689.66;5054301;28;20430;-73
2023/09/08 04:53:00;;;;;;;17.20;9.35;;;;;;;28.03;45.45;101694.44;5071603;28;20499;-73
2023/09/08 04:55:25;;;;;;;15.18;9.27;;;;;;;27.82;45.45;101697.63;5052872;28;20055;-72
2023/09/08 04:57:51;;;;;;;14.75;9.27;;;;;;;27.87;45.53;101695.44;5051759;28;20032;-72
2023/09/08 05:00:17;;;;;;;13.00;8.27;;;;;;;27.98;45.43;101696.53;5071313;28;20033;-72
2023/09/08 05:02:43;;;;;;;12.88;8.68;;;;;;;28.03;45.09;101694.44;5040564;28;20070;-73
2023/09/08 05:05:08;;;;;;;15.35;9.55;;;;;;;27.76;46.31;101703.41;5053656;28;20475;-70
2023/09/08 05:07:34;;;;;;;15.73;9.32;;;;;;;27.90;45.63;101706.00;5066972;28;20028;-72
2023/09/08 05:09:59;;;;;;;17.38;9.60;;;;;;;28.02;45.32;101703.44;5052233;28;20031;-72
2023/09/08 05:12:24;;;;;;;12.48;8.20;;;;;;;27.84;45.32;101701.03;5053043;28;20422;-72
2023/09/08 05:14:55;;;;;;;14.55;8.80;;;;;;;27.66;45.88;101702.34;5040910;28;20043;-73
2023/09/08 05:17:21;;;;;;;14.85;8.75;;;;;;;27.87;46.02;101697.28;5033343;28;20025;-72
2023/09/08 05:19:46;;;;;;;17.90;8.18;;;;;;;27.81;45.65;101709.31;5033358;28;20405;-72
2023/09/08 05:22:12;;;;;;;15.77;10.05;;;;;;;27.60;45.87;101706.28;5051714;28;20020;-72
2023/09/08 05:24:37;;;;;;;16.45;9.80;;;;;;;27.82;45.62;101708.38;5071792;28;20039;-72
2023/09/08 05:27:03;;;;;;;17.60;8.40;;;;;;;27.82;45.85;101710.16;5041343;28;20029;-72
2023/09/08 05:29:28;;;;;;;15.30;9.75;;;;;;;27.62;46.36;101708.88;5051916;28;20035;-72
2023/09/08 05:31:54;;;;;;;13.85;8.48;;;;;;;27.91;45.89;101704.16;5052297;28;20025;-72
2023/09/08 05:34:19;;;;;;;15.75;9.48;;;;;;;27.74;46.11;101705.34;5050070;28;20038;-72
2023/09/08 05:36:45;;;;;;;14.20;8.85;;;;;;;27.34;47.00;101708.03;5047943;28;20031;-72
2023/09/08 05:39:13;;;;;;;17.98;8.68;;;;;;;27.33;46.82;101709.00;5069216;28;20077;-72
2023/09/08 05:41:38;;;;;;;14.55;9.02;;;;;;;27.76;46.01;101716.84;5062262;28;20033;-73
2023/09/08 05:44:04;;;;;;;14.50;8.85;;;;;;;27.57;46.67;101710.06;5050135;28;20024;-73
2023/09/08 05:46:29;;;;;;;14.43;8.93;;;;;;;27.38;46.60;101720.31;5032747;28;20028;-72
2023/09/08 05:48:55;;;;;;;16.88;9.73;;;;;;;27.52;46.43;101727.41;5032520;28;20160;-72
2023/09/08 05:51:20;;;;;;;16.70;10.02;;;;;;;27.62;46.59;101722.31;5055477;28;20028;-72
2023/09/08 05:53:46;;;;;;;18.60;9.85;;;;;;;27.83;46.19;101728.84;5053791;28;20032;-73
2023/09/08 05:56:11;;;;;;;14.50;7.90;;;;;;;28.14;45.21;101732.13;5032112;28;20028;-71
2023/09/08 05:58:37;;;;;;;17.27;10.02;;;;;;;27.89;45.61;101730.25;5060425;28;20063;-72
2023/09/08 06:01:03;;;;;;;12.27;8.23;;;;;;;27.89;45.98;101724.88;5075441;28;20039;-72
2023/09/08 06:03:29;;;;;;;16.60;9.68;;;;;;;27.83;45.97;101720.81;5051832;28;20025;-73
2023/09/08 06:05:56;;;;;;;14.13;8.13;;;;;;;28.04;45.74;101728.38;5051698;28;20032;-72
2023/09/08 06:08:21;;;;;;;15.57;9.38;;;;;;;27.70;45.85;101728.84;5072622;28;20024;-70
2023/09/08 06:10:47;;;;;;;12.10;8.57;;;;;;;27.58;46.62;101730.53;5062505;28;20046;-72
2023/09/08 06:13:12;;;;;;;16.85;9.27;;;;;;;27.74;46.01;101733.06;5064133;28;20028;-72
2023/09/08 06:15:38;;;;;;;13.00;8.20;;;;;;;27.89;46.23;101741.88;5055044;28;20547;-72
2023/09/08 06:18:03;;;;;;;11.32;8.13;;;;;;;28.35;44.99;101739.66;5080961;28;20032;-72
2023/09/08 06:20:29;;;;;;;14.07;8.55;;;;;;;27.86;45.74;101744.78;5069626;28;20036;-73
2023/09/08 06:22:54;;;;;;;14.15;8.93;;;;;;;28.02;45.66;101746.44;5052191;28;20037;-72
2023/09/08 06:25:20;;;;;;;16.63;10.13;;;;;;;27.82;46.25;101745.97;5053244;28;20028;-72
2023/09/08 06:27:45;;;;;;;14.38;9.07;;;;;;;27.73;46.12;101741.22;5070981;28;20140;-72
2023/09/08 06:30:13;;;;;;;16.35;9.15;;;;;;;27.87;46.11;101735.75;5078829;28;20471;-72
2023/09/08 06:32:39;;;;;;;17.75;9.85;;;;;;;27.97;45.84;101740.47;5052519;28;20547;-73
2023/09/08 06:35:04;;;;;;;15.77;8.98;;;;;;;28.26;45.60;101736.63;5058644;28;20123;-72
2023/09/08 06:37:35;;;;;;;14.50;9.25;;;;;;;28.28;45.37;101739.22;5052159;28;20531;-72
2023/09/08 06:40:01;;;;;;;15.02;9.20;;;;;;;28.24;45.81;101735.88;5055727;28;20036;-72
2023/09/08 06:42:26;;;;;;;14.85;9.98;;;;;;;28.20;45.69;101745.13;5052201;28;20062;-72
2023/09/08 06:44:51;;;;;;;15.85;9.50;;;;;;;28.49;45.63;101744.03;5069758;28;20033;-72
2023/09/08 06:47:17;;;;;;;14.18;9.18;;;;;;;28.32;45.72;101737.19;5057917;28;20712;-72
2023/09/08 06:49:42;;;;;;;19.58;10.30;;;;;;;28.58;45.30;101741.53;5052038;28;20024;-72
2023/09/08 06:52:07;;;;;;;16.88;10.35;;;;;;;28.42;45.55;101746.28;5055276;28;20043;-72
2023/09/08 06:54:33;;;;;;;16.08;9.25;;;;;;;28.46;45.77;101747.78;5054362;28;20330;-72
2023/09/08 06:56:58;;;;;;;15.65;9.30;;;;;;;28.86;44.96;101746.75;5051872;28;20488;-72
2023/09/08 06:59:24;;;;;;;16.05;9.13;;;;;;;28.29;45.97;101742.75;5065242;28;20128;-72
2023/09/08 07:01:50;;;;;;;18.25;10.13;;;;;;;28.70;46.09;101747.00;5035674;28;20045;-72
2023/09/08 07:04:16;;;;;;;15.45;8.68;;;;;;;29.03;45.31;101749.06;5031785;28;20515;-72
2023/09/08 07:06:43;;;;;;;17.95;9.75;;;;;;;28.96;45.41;101741.56;5033695;28;20028;-72
2023/09/08 07:09:08;;;;;;;17.58;9.43;;;;;;;28.64;46.10;101759.06;5044204;28;20540;-72
2023/09/08 07:11:34;;;;;;;18.63;10.63;;;;;;;29.11;45.72;101745.78;5039355;28;20115;-71
2023/09/08 07:13:59;;;;;;;20.65;10.65;;;;;;;29.18;45.43;101747.06;5051005;28;20115;-72
2023/09/08 07:16:25;;;;;;;16.73;9.63;;;;;;;29.46;45.15;101739.63;5036653;28;20028;-71
2023/09/08 07:18:50;;;;;;;16.38;10.05;;;;;;;29.36;45.17;101743.97;5030329;28;20393;-70
2023/09/08 07:21:15;;;;;;;18.92;11.05;;;;;;;29.52;45.27;101744.53;5047100;28;20029;-72
2023/09/08 07:23:41;;;;;;;15.18;9.45;;;;;;;29.78;44.35;101750.59;5049412;28;20028;-72
2023/09/08 07:26:06;;;;;;;16.52;9.63;;;;;;;30.02;44.92;101747.00;5044610;28;20040;-72
2023/09/08 07:28:32;;;;;;;17.63;10.75;;;;;;;31.41;43.17;101743.03;5029026;28;20013;-72
2023/09/08 07:31:05;;;;;;;14.50;9.80;;;;;;;32.70;39.90;101749.03;5053176;28;20032;-72
2023/09/08 07:33:31;;;;;;;14.35;9.57;;;;;;;34.12;36.82;101750.28;5047326;28;20202;-71
2023/09/08 07:35:56;;;;;;;14.15;9.48;;;;;;;35.12;35.96;101755.06;5033839;28;20127;-71
2023/09/08 07:38:22;;;;;;;12.82;8.68;;;;;;;35.85;33.12;101751.28;5031262;28;20036;-71
2023/09/08 07:40:47;;;;;;;12.32;8.45;;;;;;;37.23;31.86;101759.28;5030445;28;20029;-72
2023/09/08 07:43:13;;;;;;;12.43;8.05;;;;;;;36.27;33.07;101755.94;5033334;28;20036;-71
2023/09/08 07:45:40;;;;;;;12.68;8.55;;;;;;;37.84;30.83;101757.09;5039822;28;20021;-72
2023/09/08 07:48:06;;;;;;;11.88;7.75;;;;;;;38.55;29.77;101761.81;5040332;28;20105;-71
2023/09/08 07:50:31;;;;;;;14.65;8.20;;;;;;;37.76;30.35;101759.00;5052104;28;20021;-72
2023/09/08 07:52:56;;;;;;;12.32;8.07;;;;;;;39.02;29.52;101762.72;5048600;28;20040;-72
2023/09/08 07:55:23;;;;;;;13.63;8.02;;;;;;;38.56;28.90;101758.03;5030046;28;20021;-72
2023/09/08 07:57:50;;;;;;;14.90;7.80;;;;;;;39.47;28.76;101755.56;5050379;28;20032;-71
2023/09/08 08:00:17;;;;;;;12.38;8.18;;;;;;;39.53;28.68;101754.00;5064130;28;20036;-72
2023/09/08 08:02:45;;;;;;;11.60;7.80;;;;;;;39.05;29.92;101761.53;5052342;28;20028;-72
2023/09/08 08:05:11;;;;;;;13.07;8.27;;;;;;;39.68;29.30;101752.16;5069862;28;20150;-71
2023/09/08 08:07:38;;;;;;;10.00;7.35;;;;;;;39.64;28.77;101756.28;5054833;28;20440;-71
2023/09/08 08:10:05;;;;;;;9.77;8.13;;;;;;;39.46;29.24;101753.00;5050491;28;20029;-71
2023/09/08 08:12:30;;;;;;;10.57;7.28;;;;;;;38.93;30.19;101758.38;5071718;28;20097;-71
2023/09/08 08:14:55;;;;;;;10.70;6.95;;;;;;;38.92;29.43;101746.59;5072010;28;20028;-72
2023/09/08 08:17:21;;;;;;;10.35;7.38;;;;;;;37.51;31.88;101748.94;5044826;28;20063;-72
2023/09/08 08:19:47;;;;;;;16.65;8.10;;;;;;;36.81;32.28;101752.09;5033440;28;20048;-72
2023/09/08 08:22:12;;;;;;;12.35;7.93;;;;;;;36.99;32.99;101755.53;5038851;28;20033;-71
2023/09/08 08:24:38;;;;;;;12.98;8.68;;;;;;;37.32;32.20;101749.28;5041959;28;20506;-71
2023/09/08 08:27:04;;;;;;;15.25;8.60;;;;;;;36.75;32.78;101750.00;5051154;28;20040;-71
2023/09/08 08:29:29;;;;;;;13.57;8.93;;;;;;;36.21;33.82;101751.13;5062064;28;20044;-71
2023/09/08 08:31:55;;;;;;;15.43;9.00;;;;;;;36.10;34.44;101748.72;5040491;28;20040;-72
2023/09/08 08:34:20;;;;;;;16.00;9.40;;;;;;;35.86;34.04;101747.56;5054161;28;20074;-71
2023/09/08 08:36:46;;;;;;;11.88;8.52;;;;;;;37.37;32.37;101749.59;5037002;28;20028;-71
2023/09/08 08:39:11;;;;;;;11.63;8.38;;;;;;;37.58;32.87;101753.69;5051848;28;20025;-70
2023/09/08 08:41:39;;;;;;;13.80;8.80;;;;;;;37.63;32.31;101754.03;5051328;28;20391;-71
2023/09/08 08:44:06;;;;;;;11.77;8.05;;;;;;;37.08;33.77;101756.38;5055140;28;20032;-71
2023/09/08 08:46:33;;;;;;;13.55;9.48;;;;;;;37.45;32.75;101748.75;5023532;28;20025;-74
2023/09/08 08:49:02;;;;;;;16.75;9.05;;;;;;;37.98;32.59;101760.97;5038121;28;20254;-75
2023/09/08 08:51:29;;;;;;;13.32;8.55;;;;;;;37.21;34.07;101753.16;5062645;28;20059;-75
2023/09/08 08:53:55;;;;;;;13.88;9.63;;;;;;;37.21;33.35;101753.16;5052445;28;20113;-75
2023/09/08 08:56:22;;;;;;;15.35;9.25;;;;;;;37.14;34.03;101757.59;5035107;28;20127;-75
2023/09/08 08:58:48;;;;;;;15.68;9.57;;;;;;;36.75;34.10;101760.91;5035052;28;20125;-75
2023/09/08 09:01:16;;;;;;;14.98;10.20;;;;;;;37.43;33.96;101761.72;5040978;28;20690;-74
2023/09/08 09:03:42;;;;;;;15.35;10.40;;;;;;;37.15;34.22;101771.06;5041913;28;20028;-75
2023/09/08 09:06:10;;;;;;;14.05;9.23;;;;;;;37.04;34.40;101773.25;5052669;28;20029;-75
2023/09/08 09:08:38;;;;;;;13.57;8.88;;;;;;;36.63;35.13;101766.66;5034360;28;20112;-75
2023/09/08 09:11:03;;;;;;;16.63;10.65;;;;;;;37.06;34.25;101766.59;5037359;28;20111;-75
2023/09/08 09:13:29;;;;;;;17.15;10.20;;;;;;;37.75;33.78;101754.53;5042422;28;20036;-74
2023/09/08 09:15:59;;;;;;;15.02;9.45;;;;;;;37.14;34.36;101763.06;5035372;28;20032;-75
2023/09/08 09:18:26;;;;;;;15.80;10.18;;;;;;;37.45;33.99;101770.56;5053275;28;20270;-74
2023/09/08 09:20:56;;;;;;;15.23;9.93;;;;;;;37.15;34.90;101770.19;5033907;28;20382;-74
2023/09/08 09:23:33;;;;;;;16.80;10.20;;;;;;;35.47;37.73;101766.94;5039923;28;20127;-76
2023/09/08 09:26:03;;;;;;;12.15;8.82;;;;;;;36.20;36.84;101763.03;5036873;28;20028;-76
2023/09/08 09:28:29;;;;;;;14.55;9.45;;;;;;;36.54;35.55;101767.63;5034058;28;20025;-76
2023/09/08 09:30:55;;;;;;;15.00;9.65;;;;;;;35.60;37.71;101759.25;5034944;28;20477;-76
2023/09/08 09:33:22;;;;;;;13.43;9.43;;;;;;;36.41;36.13;101769.97;5064987;28;20031;-76
2023/09/08 09:35:49;;;;;;;18.67;9.63;;;;;;;36.15;36.71;101768.13;5054463;28;20074;-76
2023/09/08 09:38:16;;;;;;;13.95;9.75;;;;;;;36.16;36.37;101758.94;5043013;28;20050;-75
2023/09/08 09:40:42;;;;;;;15.15;9.05;;;;;;;37.25;35.08;101753.66;5043900;28;20016;-75
2023/09/08 09:43:08;;;;;;;14.13;9.25;;;;;;;37.01;34.87;101764.41;5042589;28;20074;-76
2023/09/08 09:45:35;;;;;;;15.15;9.27;;;;;;;39.28;31.74;101756.06;5033704;28;20072;-76
2023/09/08 09:48:02;;;;;;;14.32;9.35;;;;;;;38.79;32.32;101757.28;5032878;28;20025;-75
2023/09/08 09:50:36;;;;;;;14.07;8.18;;;;;;;37.96;32.82;101757.59;5050490;28;20032;-76
2023/09/08 09:53:11;;;;;;;14.07;9.27;;;;;;;38.12;32.90;101755.81;5040744;28;20495;-76
2023/09/08 09:55:39;;;;;;;13.60;8.90;;;;;;;37.72;33.58;101752.16;5050965;28;20554;-76
2023/09/08 09:58:04;;;;;;;13.73;9.02;;;;;;;38.72;32.68;101756.28;5033246;28;20072;-75
2023/09/08 10:00:31;;;;;;;11.13;8.00;;;;;;;38.39;33.53;101756.41;5049859;28;20116;-75
2023/09/08 10:02:58;;;;;;;12.35;7.03;;;;;;;38.43;32.53;101747.72;5032438;28;20032;-75
2023/09/08 10:05:24;;;;;;;12.07;7.38;;;;;;;37.55;33.38;101746.72;5044656;28;20036;-76
2023/09/08 10:07:51;;;;;;;9.95;7.43;;;;;;;38.04;33.22;101745.78;5036946;28;20428;-76
2023/09/08 10:10:17;;;;;;;10.70;6.28;;;;;;;38.40;31.92;101752.66;5043035;28;20055;-75
2023/09/08 10:12:52;;;;;;;10.57;6.68;;;;;;;37.83;33.09;101743.63;5053621;28;20032;-75
2023/09/08 10:15:20;;;;;;;10.15;6.65;;;;;;;37.78;33.06;101748.75;5068281;28;20063;-75
2023/09/08 10:17:51;;;;;;;9.38;6.65;;;;;;;36.29;34.65;101748.47;5035067;28;20083;-75
2023/09/08 10:20:18;;;;;;;8.82;5.90;;;;;;;37.81;32.39;101749.25;5043363;28;20051;-75
2023/09/08 10:22:45;;;;;;;9.00;6.05;;;;;;;37.60;32.48;101757.09;5036126;28;20495;-76
2023/09/08 10:25:13;;;;;;;9.00;6.13;;;;;;;37.32;33.07;101749.28;5053072;28;20035;-76
2023/09/08 10:27:39;;;;;;;8.70;5.60;;;;;;;37.32;33.69;101754.75;5034588;28;20517;-75
2023/09/08 10:30:06;;;;;;;13.43;6.65;;;;;;;37.11;34.06;101752.47;5050169;28;20091;-75
2023/09/08 10:32:36;;;;;;;9.10;5.28;;;;;;;37.82;32.58;101755.56;5033030;28;20033;-73
2023/09/08 10:35:06;;;;;;;6.38;4.80;;;;;;;38.37;32.13;101755.75;5057278;28;20064;-75
2023/09/08 10:37:32;;;;;;;6.78;4.22;;;;;;;37.88;32.23;101749.44;5044315;28;20078;-75
2023/09/08 10:40:26;;;;;;;8.35;4.25;;;;;;;37.52;32.08;101755.22;5045904;28;20028;-75
2023/09/08 10:43:13;;;;;;;5.32;4.15;;;;;;;38.25;30.70;101756.16;5024284;28;20427;-74
2023/09/08 10:45:41;;;;;;;7.85;4.55;;;;;;;37.15;31.93;101743.81;5032266;28;20033;-75
2023/09/08 10:48:07;;;;;;;5.78;4.15;;;;;;;38.05;32.08;101754.84;5038626;28;20031;-75
2023/09/08 10:50:34;;;;;;;4.65;3.20;;;;;;;38.09;30.94;101746.13;5035020;28;20020;-75
2023/09/08 10:53:19;;;;;;;4.93;3.40;;;;;;;38.89;30.07;101744.22;5035270;28;20028;-75
2023/09/08 10:55:53;;;;;;;5.80;3.83;;;;;;;39.27;30.06;101749.78;5044913;28;20032;-75
2023/09/08 10:58:32;;;;;;;7.07;3.50;;;;;;;38.10;30.55;101757.88;5046245;28;20117;-76
2023/09/08 11:01:03;;;;;;;5.00;3.42;;;;;;;38.05;30.25;101755.69;5052788;28;20024;-76
2023/09/08 11:03:38;;;;;;;9.27;3.90;;;;;;;38.56;30.21;101754.47;5054491;28;20073;-75
2023/09/08 11:06:04;;;;;;;7.70;4.30;;;;;;;37.98;31.41;101750.06;5079540;28;20028;-76
2023/09/08 11:08:30;;;;;;;6.95;3.65;;;;;;;38.88;29.17;101756.16;5055017;28;20040;-75
2023/09/08 11:10:56;;;;;;;4.75;3.47;;;;;;;38.27;30.73;101756.81;5052437;28;20107;-76
2023/09/08 11:13:21;;;;;;;5.35;3.28;;;;;;;38.74;30.17;101755.06;5052968;28;20025;-76